Time;durP1;ratioP1;P1;durP2;ratioP2;P2;SDS_P1;SDS_P2;PMS_P1;PMS_P2;Temp;Humidity;BMP_temperature;BMP_pressure;BME280_temperature;BME280_humidity;BME280_pressure;Samples;Min_cycle;Max_cycle;Signal;HPM_P1;HPM_P2
2021/12/02 00:00:57;;;;;;;2.35;1.55;;;;;;;;;;5034433;28;20183;-78
2021/12/02 00:03:24;;;;;;;2.88;2.35;;;;;;;;;;5034384;28;20026;-77
2021/12/02 00:05:50;;;;;;;2.50;1.38;;;;;;;;;;5034328;28;20108;-79
2021/12/02 00:08:24;;;;;;;2.30;2.05;;;;;;;;;;5035746;28;20029;-79
2021/12/02 00:10:54;;;;;;;1.73;1.58;;;;;;;;;;5035375;28;20037;-79
2021/12/02 00:13:25;;;;;;;;;;;;;;;;;;5035917;28;20038;-78
2021/12/02 00:15:58;;;;;;;1.63;1.52;;;;;;;;;;5034456;28;19909;-78
2021/12/02 00:21:06;;;;;;;1.27;1.17;;;;;;;;;;5035282;28;20024;-77
2021/12/02 00:23:34;;;;;;;2.03;1.90;;;;;;;;;;5034189;28;20061;-78
2021/12/02 00:26:10;;;;;;;1.80;1.70;;;;;;;;;;5035321;28;20037;-70
2021/12/02 00:28:36;;;;;;;1.60;1.27;;;;;;;;;;5035532;28;20033;-78
2021/12/02 00:31:25;;;;;;;2.28;1.70;;;;;;;;;;5033480;28;20026;-78
2021/12/02 00:34:00;;;;;;;1.98;1.70;;;;;;;;;;5032172;28;20124;-77
2021/12/02 00:36:30;;;;;;;1.45;1.33;;;;;;;;;;5050386;28;20029;-77
2021/12/02 00:38:57;;;;;;;1.88;1.63;;;;;;;;;;5034904;28;20029;-77
2021/12/02 00:41:23;;;;;;;0.70;0.50;;;;;;;;;;5033542;28;20115;-70
2021/12/02 00:43:50;;;;;;;1.48;1.38;;;;;;;;;;5034712;28;20029;-70
2021/12/02 00:46:17;;;;;;;1.58;1.48;;;;;;;;;;5035003;28;20034;-70
2021/12/02 00:48:43;;;;;;;2.25;1.55;;;;;;;;;;5035081;28;20036;-70
2021/12/02 00:51:09;;;;;;;1.35;1.25;;;;;;;;;;5034741;28;20029;-69
2021/12/02 00:53:36;;;;;;;1.42;1.33;;;;;;;;;;5034955;28;20482;-69
2021/12/02 00:56:03;;;;;;;1.00;1.00;;;;;;;;;;5034891;28;20033;-69
2021/12/02 00:58:33;;;;;;;2.20;1.35;;;;;;;;;;5033488;28;20470;-79
2021/12/02 01:01:01;;;;;;;1.80;1.30;;;;;;;;;;5049958;28;20426;-79
2021/12/02 01:03:31;;;;;;;1.08;1.08;;;;;;;;;;5033202;28;20091;-79
2021/12/02 01:06:14;;;;;;;1.05;0.73;;;;;;;;;;5034790;28;20026;-82
2021/12/02 01:08:42;;;;;;;1.35;1.25;;;;;;;;;;5034994;28;20041;-71
2021/12/02 01:11:09;;;;;;;1.50;1.27;;;;;;;;;;5034652;28;20116;-71
2021/12/02 01:13:34;;;;;;;1.40;1.30;;;;;;;;;;5034499;28;20032;-70
2021/12/02 01:16:00;;;;;;;2.03;1.80;;;;;;;;;;5033179;28;20029;-71
2021/12/02 01:18:25;;;;;;;1.60;1.38;;;;;;;;;;5034213;28;20104;-71
2021/12/02 01:20:51;;;;;;;1.15;1.05;;;;;;;;;;5033115;28;20025;-70
2021/12/02 01:23:18;;;;;;;1.20;1.10;;;;;;;;;;5034171;28;20049;-71
2021/12/02 01:25:48;;;;;;;1.17;1.10;;;;;;;;;;5034550;28;20029;-71
2021/12/02 01:28:21;;;;;;;1.10;1.00;;;;;;;;;;5033895;28;20045;-70
2021/12/02 01:31:04;;;;;;;0.95;0.85;;;;;;;;;;5034069;28;20476;-70
2021/12/02 01:33:44;;;;;;;1.08;1.08;;;;;;;;;;5031775;28;20049;-70
2021/12/02 01:36:12;;;;;;;1.30;1.20;;;;;;;;;;5049607;28;20037;-78
2021/12/02 01:38:39;;;;;;;1.88;1.45;;;;;;;;;;5032821;28;20067;-71
2021/12/02 01:41:05;;;;;;;0.77;0.77;;;;;;;;;;5033974;28;20112;-69
2021/12/02 01:43:37;;;;;;;1.20;1.10;;;;;;;;;;5049362;28;20013;-69
2021/12/02 01:46:15;;;;;;;1.45;1.35;;;;;;;;;;5033705;28;20490;-69
2021/12/02 01:48:42;;;;;;;1.50;1.40;;;;;;;;;;5032585;28;20041;-69
2021/12/02 01:51:10;;;;;;;1.38;1.27;;;;;;;;;;5033727;28;20067;-70
2021/12/02 01:53:37;;;;;;;0.90;0.90;;;;;;;;;;5032622;28;20037;-70
2021/12/02 01:56:10;;;;;;;1.35;1.25;;;;;;;;;;5033383;28;20013;-70
2021/12/02 01:58:41;;;;;;;1.48;1.15;;;;;;;;;;5048494;28;20037;-70
2021/12/02 02:01:12;;;;;;;1.73;1.27;;;;;;;;;;5033255;28;20029;-70
2021/12/02 02:03:37;;;;;;;;;;;;;;;;;;5032886;28;20037;-71
2021/12/02 02:06:05;;;;;;;1.27;1.17;;;;;;;;;;5033529;28;19912;-76
2021/12/02 02:08:30;;;;;;;1.80;1.30;;;;;;;;;;5034003;28;20025;-78
2021/12/02 02:10:57;;;;;;;1.05;0.95;;;;;;;;;;5033373;28;20028;-77
2021/12/02 02:13:22;;;;;;;1.45;1.35;;;;;;;;;;5032063;28;20037;-77
2021/12/02 02:15:51;;;;;;;1.83;1.55;;;;;;;;;;5032162;28;20099;-77
2021/12/02 02:21:03;;;;;;;2.05;1.70;;;;;;;;;;5033672;28;20013;-77
2021/12/02 02:23:31;;;;;;;1.48;1.38;;;;;;;;;;5033771;28;20029;-77
2021/12/02 02:25:58;;;;;;;1.20;1.10;;;;;;;;;;5033474;28;20076;-77
2021/12/02 02:28:24;;;;;;;1.83;1.60;;;;;;;;;;5032350;28;20064;-70
2021/12/02 02:30:50;;;;;;;1.63;1.52;;;;;;;;;;5033414;28;20022;-70
2021/12/02 02:33:18;;;;;;;1.63;1.52;;;;;;;;;;5031580;28;20084;-70
2021/12/02 02:35:45;;;;;;;1.98;1.27;;;;;;;;;;5033413;28;20057;-69
2021/12/02 02:38:11;;;;;;;1.70;1.58;;;;;;;;;;5033028;28;20037;-76
2021/12/02 02:40:45;;;;;;;1.83;1.23;;;;;;;;;;5031947;28;20017;-78
2021/12/02 02:43:21;;;;;;;1.23;1.08;;;;;;;;;;5033459;28;20025;-78
2021/12/02 02:45:48;;;;;;;1.52;1.42;;;;;;;;;;5033739;28;20029;-78
2021/12/02 02:48:13;;;;;;;1.45;1.23;;;;;;;;;;5033164;28;20464;-77
2021/12/02 02:50:40;;;;;;;1.55;1.38;;;;;;;;;;5033692;28;20040;-79
2021/12/02 02:53:16;;;;;;;1.58;1.10;;;;;;;;;;5032888;28;20113;-79
2021/12/02 02:56:09;;;;;;;2.25;1.20;;;;;;;;;;5032821;28;20030;-79
2021/12/02 03:06:52;;;;;;;1.10;1.00;;;;;;;;;;5032790;28;20017;-71
2021/12/02 03:12:05;;;;;;;2.70;0.90;;;;;;;;;;5036799;28;20495;-71
2021/12/02 03:14:37;;;;;;;1.15;1.02;;;;;;;;;;5036836;28;20041;-71
2021/12/02 03:17:02;;;;;;;0.93;0.90;;;;;;;;;;5035156;28;20071;-71
2021/12/02 03:19:28;;;;;;;1.02;0.95;;;;;;;;;;5035474;28;20053;-71
2021/12/02 03:21:54;;;;;;;0.63;0.50;;;;;;;;;;5036687;28;20026;-68
2021/12/02 03:24:20;;;;;;;2.33;1.15;;;;;;;;;;5036370;28;20017;-70
2021/12/02 03:26:47;;;;;;;0.55;0.55;;;;;;;;;;5036844;28;20032;-70
2021/12/02 03:29:12;;;;;;;1.65;1.00;;;;;;;;;;5035094;28;20018;-71
2021/12/02 03:31:38;;;;;;;1.58;0.88;;;;;;;;;;5036266;28;20464;-72
2021/12/02 03:34:05;;;;;;;1.20;0.95;;;;;;;;;;5034363;28;20045;-70
2021/12/02 03:36:30;;;;;;;0.63;0.63;;;;;;;;;;5036124;28;20211;-69
2021/12/02 03:38:57;;;;;;;0.77;0.70;;;;;;;;;;5036116;28;20116;-79
2021/12/02 03:41:29;;;;;;;1.35;0.95;;;;;;;;;;5035983;28;20025;-78
2021/12/02 03:43:55;;;;;;;0.82;0.80;;;;;;;;;;5035137;28;20021;-80
2021/12/02 03:46:26;;;;;;;0.75;0.70;;;;;;;;;;5035764;28;20036;-79
2021/12/02 03:49:00;;;;;;;0.90;0.90;;;;;;;;;;5036016;28;20482;-79
2021/12/02 03:51:28;;;;;;;1.60;1.02;;;;;;;;;;5035946;28;20041;-80
2021/12/02 03:53:57;;;;;;;1.40;1.08;;;;;;;;;;5034561;28;20059;-81
2021/12/02 03:56:23;;;;;;;0.88;0.88;;;;;;;;;;5035749;28;20033;-81
2021/12/02 03:58:51;;;;;;;0.70;0.70;;;;;;;;;;5034510;28;20026;-82
2021/12/02 04:01:17;;;;;;;2.47;1.13;;;;;;;;;;5035690;28;20084;-81
2021/12/02 04:03:44;;;;;;;0.82;0.82;;;;;;;;;;5034373;28;20021;-81
2021/12/02 04:06:10;;;;;;;1.05;0.95;;;;;;;;;;5035943;28;20041;-71
2021/12/02 04:08:43;;;;;;;0.70;0.57;;;;;;;;;;5034400;28;20030;-71
2021/12/02 04:14:33;;;;;;;2.33;0.88;;;;;;;;;;5035567;28;20087;-82
2021/12/02 04:16:39;;;;;;;2.22;0.85;;;;;;;;;;5029783;28;20041;-82
2021/12/02 04:19:06;;;;;;;0.82;0.75;;;;;;;;;;5033965;28;20064;-70
2021/12/02 04:21:32;;;;;;;0.60;0.60;;;;;;;;;;5034718;28;20025;-71
2021/12/02 04:23:57;;;;;;;1.15;0.75;;;;;;;;;;5034221;28;20026;-70
2021/12/02 04:26:23;;;;;;;0.88;0.88;;;;;;;;;;5033969;28;20372;-69
2021/12/02 04:28:51;;;;;;;1.67;1.10;;;;;;;;;;5035547;28;20369;-79
2021/12/02 04:31:16;;;;;;;0.90;0.60;;;;;;;;;;5035565;28;20044;-78
2021/12/02 04:33:41;;;;;;;1.42;0.70;;;;;;;;;;5031866;28;20606;-78
2021/12/02 04:36:08;;;;;;;1.00;0.90;;;;;;;;;;5034184;28;20034;-78
2021/12/02 04:38:34;;;;;;;0.82;0.82;;;;;;;;;;5034825;28;20038;-78
2021/12/02 04:41:04;;;;;;;1.30;0.82;;;;;;;;;;5034916;28;20028;-78
2021/12/02 04:43:29;;;;;;;0.70;0.70;;;;;;;;;;5035028;28;20033;-78
2021/12/02 04:45:55;;;;;;;0.75;0.75;;;;;;;;;;5033593;28;20498;-78
2021/12/02 04:48:21;;;;;;;1.08;0.98;;;;;;;;;;5034737;28;20057;-70
2021/12/02 04:50:46;;;;;;;0.57;0.50;;;;;;;;;;5034865;28;20464;-70
2021/12/02 04:53:12;;;;;;;2.58;0.82;;;;;;;;;;5034535;28;20075;-69
2021/12/02 04:55:40;;;;;;;0.77;0.77;;;;;;;;;;5034874;28;20025;-79
2021/12/02 04:58:07;;;;;;;1.65;0.90;;;;;;;;;;5033387;28;20025;-79
2021/12/02 05:00:36;;;;;;;1.13;1.02;;;;;;;;;;5034788;28;20026;-80
2021/12/02 05:03:10;;;;;;;1.55;1.05;;;;;;;;;;5033315;28;20467;-80
2021/12/02 05:05:45;;;;;;;1.83;0.90;;;;;;;;;;5034490;28;20030;-79
2021/12/02 05:08:15;;;;;;;0.57;0.57;;;;;;;;;;5034474;28;20025;-80
2021/12/02 05:13:21;;;;;;;1.80;1.05;;;;;;;;;;5034393;28;19916;-78
2021/12/02 05:15:48;;;;;;;1.25;0.98;;;;;;;;;;5034182;28;20471;-78
2021/12/02 05:18:13;;;;;;;1.20;0.98;;;;;;;;;;5034150;28;20062;-69
2021/12/02 05:20:39;;;;;;;0.73;0.73;;;;;;;;;;5034139;28;20061;-70
2021/12/02 05:23:04;;;;;;;0.68;0.68;;;;;;;;;;5050107;28;20108;-70
2021/12/02 05:25:30;;;;;;;0.90;0.90;;;;;;;;;;5034007;28;20036;-69
2021/12/02 05:27:55;;;;;;;0.60;0.50;;;;;;;;;;5049517;28;20029;-78
2021/12/02 05:30:21;;;;;;;0.90;0.90;;;;;;;;;;5032773;28;20029;-69
2021/12/02 05:32:47;;;;;;;1.45;1.35;;;;;;;;;;5032892;28;20021;-70
2021/12/02 05:35:12;;;;;;;1.20;1.10;;;;;;;;;;5032104;28;20060;-70
2021/12/02 05:37:39;;;;;;;1.30;1.20;;;;;;;;;;5032840;28;20033;-69
2021/12/02 05:40:05;;;;;;;2.17;0.98;;;;;;;;;;5049498;28;20036;-69
2021/12/02 05:42:30;;;;;;;1.42;1.05;;;;;;;;;;5032328;28;20017;-70
2021/12/02 05:44:55;;;;;;;2.75;1.23;;;;;;;;;;5033040;28;20484;-69
2021/12/02 05:47:21;;;;;;;0.47;0.47;;;;;;;;;;5032446;28;20033;-69
2021/12/02 05:49:46;;;;;;;2.53;1.27;;;;;;;;;;5032258;28;20021;-70
2021/12/02 05:52:12;;;;;;;0.77;0.73;;;;;;;;;;5026988;28;20069;-71
2021/12/02 05:54:38;;;;;;;1.80;1.40;;;;;;;;;;5030971;28;20017;-70
2021/12/02 05:57:04;;;;;;;1.35;1.25;;;;;;;;;;5030211;28;20408;-70
2021/12/02 05:59:29;;;;;;;1.23;1.20;;;;;;;;;;5019874;28;20017;-70
2021/12/02 06:02:05;;;;;;;1.38;1.20;;;;;;;;;;5025816;28;20025;-78
2021/12/02 06:04:31;;;;;;;1.52;1.42;;;;;;;;;;5020623;28;20018;-70
2021/12/02 06:06:59;;;;;;;0.88;0.88;;;;;;;;;;5024886;28;20032;-79
2021/12/02 06:09:28;;;;;;;1.13;1.10;;;;;;;;;;5031279;28;20060;-79
2021/12/02 06:11:54;;;;;;;1.17;1.08;;;;;;;;;;5025717;28;20108;-79
2021/12/02 06:14:21;;;;;;;1.50;1.33;;;;;;;;;;5017997;28;20096;-80
2021/12/02 06:16:49;;;;;;;1.08;1.05;;;;;;;;;;5012529;28;20464;-79
2021/12/02 06:19:15;;;;;;;0.90;0.90;;;;;;;;;;5016158;28;20072;-70
2021/12/02 06:21:41;;;;;;;1.23;1.13;;;;;;;;;;5018732;28;20025;-71
2021/12/02 06:24:07;;;;;;;2.13;1.20;;;;;;;;;;5021104;28;20342;-71
2021/12/02 06:26:33;;;;;;;1.13;1.08;;;;;;;;;;5017445;28;20028;-70
2021/12/02 06:28:58;;;;;;;0.60;0.60;;;;;;;;;;5035888;28;20392;-70
2021/12/02 06:31:24;;;;;;;1.40;1.30;;;;;;;;;;5016725;28;20064;-70
2021/12/02 06:33:50;;;;;;;1.10;0.90;;;;;;;;;;5016745;28;20104;-70
2021/12/02 06:36:15;;;;;;;1.30;1.20;;;;;;;;;;5022517;28;20037;-70
2021/12/02 06:38:42;;;;;;;1.38;1.27;;;;;;;;;;5011753;28;20381;-77
2021/12/02 06:41:11;;;;;;;0.82;0.82;;;;;;;;;;5012597;28;20034;-78
2021/12/02 06:43:36;;;;;;;1.20;1.10;;;;;;;;;;5012551;28;20022;-79
2021/12/02 06:46:04;;;;;;;1.08;0.98;;;;;;;;;;5015368;28;20037;-78
2021/12/02 06:48:31;;;;;;;1.52;1.30;;;;;;;;;;5016381;28;20081;-77
2021/12/02 06:51:00;;;;;;;3.42;1.30;;;;;;;;;;5016503;28;20542;-80
2021/12/02 06:53:29;;;;;;;4.78;1.65;;;;;;;;;;5016192;28;20037;-80
2021/12/02 06:55:55;;;;;;;0.75;0.75;;;;;;;;;;5014817;28;20029;-80
2021/12/02 06:58:21;;;;;;;0.80;0.40;;;;;;;;;;5014874;28;20033;-79
2021/12/02 07:00:47;;;;;;;0.52;0.52;;;;;;;;;;5016254;28;20064;-81
2021/12/02 07:03:18;;;;;;;1.45;1.33;;;;;;;;;;5014961;28;20026;-77
2021/12/02 07:05:44;;;;;;;1.35;1.27;;;;;;;;;;5016050;28;20026;-80
2021/12/02 07:08:09;;;;;;;1.05;0.95;;;;;;;;;;5014951;28;20468;-80
2021/12/02 07:10:36;;;;;;;1.95;1.15;;;;;;;;;;5015022;28;20084;-75
2021/12/02 07:13:02;;;;;;;1.27;1.17;;;;;;;;;;5014763;28;20026;-76
2021/12/02 07:15:31;;;;;;;0.85;0.63;;;;;;;;;;5014334;28;20443;-76
2021/12/02 07:17:58;;;;;;;1.67;1.33;;;;;;;;;;5015539;28;20022;-76
2021/12/02 07:20:25;;;;;;;1.48;1.20;;;;;;;;;;5015777;28;20040;-76
2021/12/02 07:22:50;;;;;;;1.85;1.58;;;;;;;;;;5015468;28;20028;-75
2021/12/02 07:25:16;;;;;;;1.70;1.40;;;;;;;;;;5015635;28;20030;-75
2021/12/02 07:27:42;;;;;;;0.95;0.95;;;;;;;;;;5015778;28;20106;-75
2021/12/02 07:30:08;;;;;;;1.05;0.95;;;;;;;;;;5015614;28;20096;-76
2021/12/02 07:32:39;;;;;;;1.15;1.05;;;;;;;;;;5015138;28;20030;-76
2021/12/02 07:35:04;;;;;;;;;;;;;;;;;;5015962;28;20049;-76
2021/12/02 07:37:30;;;;;;;1.05;1.05;;;;;;;;;;5015418;28;20224;-77
2021/12/02 07:39:56;;;;;;;1.13;0.98;;;;;;;;;;5015499;28;20045;-76
2021/12/02 07:42:22;;;;;;;1.30;1.20;;;;;;;;;;5015727;28;20494;-76
2021/12/02 07:44:47;;;;;;;1.10;0.70;;;;;;;;;;5015194;28;20495;-76
2021/12/02 07:47:13;;;;;;;1.75;1.15;;;;;;;;;;5013639;28;20034;-77
2021/12/02 07:49:39;;;;;;;1.00;0.90;;;;;;;;;;5015371;28;20029;-76
2021/12/02 07:52:07;;;;;;;0.70;0.70;;;;;;;;;;5015019;28;20018;-77
2021/12/02 07:54:39;;;;;;;0.88;0.88;;;;;;;;;;5014607;28;20400;-77
2021/12/02 07:57:10;;;;;;;2.08;1.45;;;;;;;;;;5012822;28;20033;-76
2021/12/02 07:59:36;;;;;;;0.80;0.73;;;;;;;;;;5014915;28;20062;-77
2021/12/02 08:02:02;;;;;;;1.15;1.05;;;;;;;;;;5014700;28;20092;-76
2021/12/02 08:04:31;;;;;;;1.45;1.15;;;;;;;;;;5014832;28;20037;-77
2021/12/02 08:06:56;;;;;;;0.52;0.52;;;;;;;;;;5013656;28;20044;-76
2021/12/02 08:09:23;;;;;;;1.60;1.50;;;;;;;;;;5014392;28;20484;-77
2021/12/02 08:11:48;;;;;;;2.28;1.38;;;;;;;;;;5014448;28;20028;-77
2021/12/02 08:14:17;;;;;;;2.28;1.50;;;;;;;;;;5014512;28;20540;-77
2021/12/02 08:16:44;;;;;;;2.97;1.58;;;;;;;;;;5014856;28;20026;-77
2021/12/02 08:19:13;;;;;;;1.85;1.38;;;;;;;;;;5015051;28;20037;-77
2021/12/02 08:21:40;;;;;;;2.65;1.77;;;;;;;;;;5014868;28;20022;-76
2021/12/02 08:24:05;;;;;;;1.60;1.42;;;;;;;;;;5014268;28;20065;-77
2021/12/02 08:26:32;;;;;;;2.70;1.52;;;;;;;;;;5014898;28;20026;-76
2021/12/02 08:28:58;;;;;;;1.63;1.38;;;;;;;;;;5013233;28;20108;-76
2021/12/02 08:31:23;;;;;;;2.17;1.45;;;;;;;;;;5014100;28;20113;-76
2021/12/02 08:33:51;;;;;;;1.73;0.98;;;;;;;;;;5013254;28;20152;-76
2021/12/02 08:36:21;;;;;;;1.15;1.00;;;;;;;;;;5014688;28;20768;-76
2021/12/02 08:38:49;;;;;;;2.97;1.30;;;;;;;;;;5014326;28;20029;-77
2021/12/02 08:41:18;;;;;;;1.30;1.20;;;;;;;;;;5014592;28;20265;-76
2021/12/02 08:43:45;;;;;;;1.90;1.38;;;;;;;;;;5014339;28;20068;-76
2021/12/02 08:46:12;;;;;;;2.13;1.42;;;;;;;;;;5014087;28;20026;-77
2021/12/02 08:48:46;;;;;;;1.75;1.65;;;;;;;;;;5014487;28;20380;-77
2021/12/02 08:51:15;;;;;;;1.77;1.52;;;;;;;;;;5014435;28;20033;-76
2021/12/02 08:53:43;;;;;;;0.98;0.98;;;;;;;;;;5013936;28;20057;-76
2021/12/02 08:56:08;;;;;;;2.03;1.63;;;;;;;;;;5013882;28;20047;-76
2021/12/02 08:58:36;;;;;;;1.80;1.38;;;;;;;;;;5013964;28;20040;-76
2021/12/02 09:01:02;;;;;;;2.10;1.48;;;;;;;;;;5013571;28;20029;-76
2021/12/02 09:03:27;;;;;;;1.20;1.10;;;;;;;;;;5012645;28;20014;-78
2021/12/02 09:05:54;;;;;;;2.10;1.42;;;;;;;;;;5013794;28;20018;-76
2021/12/02 09:08:24;;;;;;;2.28;1.70;;;;;;;;;;5012623;28;20543;-65
2021/12/02 09:10:49;;;;;;;2.30;1.47;;;;;;;;;;5011768;28;20184;-65
2021/12/02 09:13:16;;;;;;;1.95;0.60;;;;;;;;;;5011013;28;20112;-67
2021/12/02 09:15:42;;;;;;;4.35;1.33;;;;;;;;;;5011349;28;20033;-67
2021/12/02 09:18:07;;;;;;;1.65;1.23;;;;;;;;;;5011198;28;20025;-67
2021/12/02 09:20:33;;;;;;;1.15;1.05;;;;;;;;;;5011221;28;20077;-66
2021/12/02 09:22:58;;;;;;;1.33;1.13;;;;;;;;;;5010950;28;20084;-66
2021/12/02 09:25:24;;;;;;;1.02;0.85;;;;;;;;;;5011269;28;20029;-66
2021/12/02 09:27:49;;;;;;;1.85;1.58;;;;;;;;;;5011218;28;20030;-65
2021/12/02 09:30:16;;;;;;;1.50;1.30;;;;;;;;;;5011143;28;20034;-66
2021/12/02 09:32:41;;;;;;;1.92;1.70;;;;;;;;;;5010729;28;20034;-65
2021/12/02 09:35:08;;;;;;;1.85;1.73;;;;;;;;;;5010617;28;20392;-66
2021/12/02 09:37:33;;;;;;;1.90;1.40;;;;;;;;;;5010855;28;20037;-66
2021/12/02 09:39:59;;;;;;;1.98;1.70;;;;;;;;;;5011004;28;20033;-66
2021/12/02 09:42:25;;;;;;;2.38;1.05;;;;;;;;;;5011044;28;20109;-66
2021/12/02 09:44:55;;;;;;;2.47;1.60;;;;;;;;;;5010796;28;20053;-66
2021/12/02 09:47:21;;;;;;;0.95;0.75;;;;;;;;;;5010676;28;20044;-66
2021/12/02 09:49:47;;;;;;;1.67;1.58;;;;;;;;;;5010539;28;20129;-66
2021/12/02 09:52:14;;;;;;;2.35;1.63;;;;;;;;;;5010114;28;20492;-66
2021/12/02 09:54:44;;;;;;;1.15;1.00;;;;;;;;;;5010679;28;20045;-66
2021/12/02 09:57:16;;;;;;;3.50;1.83;;;;;;;;;;5010311;28;20042;-66
2021/12/02 10:02:12;;;;;;;2.72;1.65;;;;;;;;;;5009620;28;20557;-65
2021/12/02 10:05:02;;;;;;;1.17;0.90;;;;;;;;;;5007742;28;20034;-65
2021/12/02 10:07:44;;;;;;;1.92;1.40;;;;;;;;;;5009413;28;20037;-66
2021/12/02 10:10:17;;;;;;;2.50;1.42;;;;;;;;;;5009294;28;20132;-65
2021/12/02 10:13:04;;;;;;;3.38;2.20;;;;;;;;;;5008618;28;20036;-67
2021/12/02 10:15:30;;;;;;;2.72;1.73;;;;;;;;;;5008718;28;20094;-65
2021/12/02 10:17:58;;;;;;;3.33;2.05;;;;;;;;;;5010256;28;20080;-67
2021/12/02 10:20:34;;;;;;;0.77;0.63;;;;;;;;;;5009937;28;20164;-67
2021/12/02 10:25:47;;;;;;;4.75;2.00;;;;;;;;;;5010452;28;20073;-65
2021/12/02 10:28:18;;;;;;;1.67;1.48;;;;;;;;;;5010311;28;20076;-65
2021/12/02 10:30:51;;;;;;;3.13;2.03;;;;;;;;;;5010402;28;20056;-66
2021/12/02 10:33:28;;;;;;;2.38;2.00;;;;;;;;;;5009882;28;20415;-66
2021/12/02 10:35:53;;;;;;;3.47;2.20;;;;;;;;;;5010100;28;20089;-66
2021/12/02 10:38:39;;;;;;;3.13;2.58;;;;;;;;;;5010081;28;20244;-66
2021/12/02 10:41:12;;;;;;;2.00;1.40;;;;;;;;;;5010070;28;20044;-66
2021/12/02 10:43:56;;;;;;;1.65;1.27;;;;;;;;;;5009746;28;20040;-66
2021/12/02 10:46:22;;;;;;;2.00;1.27;;;;;;;;;;5009003;28;20036;-66
2021/12/02 10:48:51;;;;;;;1.70;1.60;;;;;;;;;;5010056;28;20033;-65
2021/12/02 10:51:36;;;;;;;3.13;2.33;;;;;;;;;;5009912;28;20141;-65
2021/12/02 10:54:03;;;;;;;3.40;2.00;;;;;;;;;;5009682;28;20049;-66
2021/12/02 10:56:33;;;;;;;3.47;1.58;;;;;;;;;;5009728;28;20037;-65
2021/12/02 10:59:18;;;;;;;1.67;1.45;;;;;;;;;;5009926;28;20112;-63
2021/12/02 11:01:44;;;;;;;2.50;2.20;;;;;;;;;;5009884;28;20480;-63
2021/12/02 11:04:12;;;;;;;3.00;2.17;;;;;;;;;;5010011;28;20037;-63
2021/12/02 11:06:41;;;;;;;2.85;2.15;;;;;;;;;;5007871;28;20164;-64
2021/12/02 11:09:27;;;;;;;5.22;2.50;;;;;;;;;;5010069;28;20041;-62
2021/12/02 11:11:56;;;;;;;5.50;2.83;;;;;;;;;;5008132;28;20507;-61
2021/12/02 11:14:22;;;;;;;3.55;2.38;;;;;;;;;;5008345;28;20552;-62
2021/12/02 11:16:48;;;;;;;3.88;2.30;;;;;;;;;;5009280;28;20136;-66
2021/12/02 11:19:21;;;;;;;2.22;1.67;;;;;;;;;;4999831;28;20029;-67
2021/12/02 11:21:46;;;;;;;3.00;2.38;;;;;;;;;;5019641;28;20079;-67
2021/12/02 11:24:29;;;;;;;3.92;2.75;;;;;;;;;;5018262;28;20025;-67
2021/12/02 11:27:09;;;;;;;4.03;2.50;;;;;;;;;;5018071;28;20034;-68
2021/12/02 11:29:53;;;;;;;4.30;2.45;;;;;;;;;;5012205;28;20034;-65
2021/12/02 11:32:30;;;;;;;3.50;2.05;;;;;;;;;;5026786;28;20047;-66
2021/12/02 11:34:59;;;;;;;2.13;1.92;;;;;;;;;;5032197;28;20103;-64
2021/12/02 11:37:25;;;;;;;4.50;2.63;;;;;;;;;;5033192;28;20049;-66
2021/12/02 11:39:51;;;;;;;2.58;2.28;;;;;;;;;;5032937;28;20075;-65
2021/12/02 11:42:17;;;;;;;3.28;2.30;;;;;;;;;;5031527;28;20036;-66
2021/12/02 11:44:43;;;;;;;2.33;1.60;;;;;;;;;;5031329;28;20034;-66
2021/12/02 11:47:08;;;;;;;2.13;1.90;;;;;;;;;;5032854;28;20025;-66
2021/12/02 11:49:35;;;;;;;2.90;1.80;;;;;;;;;;5031309;28;20038;-67
2021/12/02 11:52:01;;;;;;;2.35;1.65;;;;;;;;;;5032241;28;20021;-67
2021/12/02 11:54:27;;;;;;;2.05;1.83;;;;;;;;;;5032861;28;20065;-66
2021/12/02 11:56:53;;;;;;;2.08;1.70;;;;;;;;;;5032484;28;20068;-66
2021/12/02 11:59:21;;;;;;;4.38;1.73;;;;;;;;;;5032376;28;20025;-67
2021/12/02 12:01:46;;;;;;;3.10;2.15;;;;;;;;;;5032551;28;20480;-66
2021/12/02 12:04:13;;;;;;;5.85;2.00;;;;;;;;;;5032630;28;20045;-66
2021/12/02 12:06:41;;;;;;;3.22;1.75;;;;;;;;;;5032416;28;20032;-67
2021/12/02 12:09:11;;;;;;;2.88;1.98;;;;;;;;;;5020936;28;20029;-67
2021/12/02 12:11:38;;;;;;;2.83;1.63;;;;;;;;;;5013347;28;20022;-66
2021/12/02 12:14:04;;;;;;;4.10;2.47;;;;;;;;;;5012098;28;20037;-67
2021/12/02 12:16:31;;;;;;;1.77;1.60;;;;;;;;;;5012085;28;20412;-67
2021/12/02 12:19:13;;;;;;;2.72;2.35;;;;;;;;;;5017222;28;20030;-67
2021/12/02 12:21:40;;;;;;;2.63;2.30;;;;;;;;;;5010964;28;20084;-67
2021/12/02 12:24:07;;;;;;;2.65;1.10;;;;;;;;;;5011869;28;20129;-66
2021/12/02 12:26:35;;;;;;;3.42;1.80;;;;;;;;;;5011903;28;20041;-67
2021/12/02 12:29:04;;;;;;;1.35;1.25;;;;;;;;;;5010704;28;20037;-67
2021/12/02 12:31:30;;;;;;;2.20;1.60;;;;;;;;;;5011956;28;20044;-66
2021/12/02 12:33:58;;;;;;;3.25;2.20;;;;;;;;;;5009588;28;20045;-66
2021/12/02 12:36:42;;;;;;;2.63;2.03;;;;;;;;;;5011843;28;20511;-66
2021/12/02 12:39:17;;;;;;;2.92;2.00;;;;;;;;;;5011995;28;20053;-67
2021/12/02 12:42:06;;;;;;;3.83;2.50;;;;;;;;;;5010559;28;20423;-66
2021/12/02 12:44:52;;;;;;;5.07;3.25;;;;;;;;;;5011265;28;20026;-67
2021/12/02 12:47:19;;;;;;;5.22;2.50;;;;;;;;;;5011477;28;20127;-67
2021/12/02 12:49:45;;;;;;;2.90;2.38;;;;;;;;;;5011749;28;20018;-66
2021/12/02 12:52:15;;;;;;;2.88;2.17;;;;;;;;;;5011380;28;20037;-67
2021/12/02 12:54:41;;;;;;;3.80;2.43;;;;;;;;;;5009833;28;20072;-67
2021/12/02 12:57:08;;;;;;;3.92;2.70;;;;;;;;;;5011570;28;20058;-66
2021/12/02 12:59:55;;;;;;;6.22;2.65;;;;;;;;;;5011611;28;20033;-66
2021/12/02 13:02:21;;;;;;;4.57;2.85;;;;;;;;;;5011349;28;20038;-66
2021/12/02 13:04:53;;;;;;;4.85;3.25;;;;;;;;;;5010872;28;20484;-66
2021/12/02 13:07:20;;;;;;;4.35;3.00;;;;;;;;;;4993483;28;20029;-66
2021/12/02 13:09:59;;;;;;;5.72;3.00;;;;;;;;;;5011342;28;20495;-66
2021/12/02 13:12:46;;;;;;;2.67;2.22;;;;;;;;;;5020861;28;20037;-66
2021/12/02 13:15:14;;;;;;;3.13;2.28;;;;;;;;;;5018813;28;20026;-66
2021/12/02 13:17:42;;;;;;;3.30;2.42;;;;;;;;;;5010673;28;20022;-66
2021/12/02 13:20:20;;;;;;;3.85;2.28;;;;;;;;;;5010902;28;20026;-67
2021/12/02 13:23:07;;;;;;;2.50;2.25;;;;;;;;;;5009579;28;20026;-67
2021/12/02 13:25:53;;;;;;;4.70;2.63;;;;;;;;;;5010859;28;20029;-64
2021/12/02 13:28:25;;;;;;;3.65;2.55;;;;;;;;;;5011052;28;20037;-63
2021/12/02 13:30:53;;;;;;;2.95;2.60;;;;;;;;;;5010952;28;20025;-63
2021/12/02 13:33:18;;;;;;;2.30;1.98;;;;;;;;;;5010357;28;20018;-63
2021/12/02 13:35:44;;;;;;;2.58;2.20;;;;;;;;;;4991411;28;20397;-63
2021/12/02 13:38:13;;;;;;;2.00;1.80;;;;;;;;;;4990920;28;20073;-63
2021/12/02 13:40:40;;;;;;;3.50;2.85;;;;;;;;;;4999111;28;20041;-63
2021/12/02 13:43:06;;;;;;;4.32;3.58;;;;;;;;;;4983592;28;20458;-63
2021/12/02 13:45:32;;;;;;;5.72;2.42;;;;;;;;;;4999571;28;20397;-69
2021/12/02 13:48:11;;;;;;;5.60;3.15;;;;;;;;;;4998228;28;20018;-69
2021/12/02 13:50:40;;;;;;;4.63;3.03;;;;;;;;;;4996555;28;20030;-70
2021/12/02 13:53:07;;;;;;;5.40;4.03;;;;;;;;;;4991946;28;20038;-70
2021/12/02 13:55:38;;;;;;;4.45;2.90;;;;;;;;;;4989733;28;20023;-70
2021/12/02 13:58:18;;;;;;;4.85;2.45;;;;;;;;;;4990952;28;20501;-69
2021/12/02 14:00:45;;;;;;;3.75;2.22;;;;;;;;;;4988906;28;20716;-69
2021/12/02 14:03:19;;;;;;;2.40;2.20;;;;;;;;;;4990294;28;20398;-69
2021/12/02 14:05:54;;;;;;;3.03;2.40;;;;;;;;;;4987999;28;20117;-69
2021/12/02 14:08:24;;;;;;;5.85;2.72;;;;;;;;;;4988373;28;20076;-69
2021/12/02 14:10:51;;;;;;;4.10;3.03;;;;;;;;;;4989824;28;20039;-69
2021/12/02 14:13:17;;;;;;;2.55;2.35;;;;;;;;;;4989589;28;20133;-69
2021/12/02 14:15:44;;;;;;;3.17;2.10;;;;;;;;;;4989459;28;20122;-69
2021/12/02 14:18:10;;;;;;;2.47;2.15;;;;;;;;;;4989329;28;20034;-69
2021/12/02 14:20:37;;;;;;;3.85;2.17;;;;;;;;;;4987923;28;20453;-69
2021/12/02 14:23:07;;;;;;;4.53;2.47;;;;;;;;;;4989403;28;20472;-71
2021/12/02 14:25:33;;;;;;;4.45;2.30;;;;;;;;;;4989500;28;20161;-70
2021/12/02 14:28:17;;;;;;;2.97;2.60;;;;;;;;;;4989416;28;20026;-69
2021/12/02 14:30:51;;;;;;;3.83;2.88;;;;;;;;;;4989124;28;20031;-70
2021/12/02 14:33:18;;;;;;;5.20;2.58;;;;;;;;;;4989092;28;20037;-69
2021/12/02 14:35:46;;;;;;;6.18;4.13;;;;;;;;;;5008786;28;20074;-70
2021/12/02 14:38:16;;;;;;;15.50;6.18;;;;;;;;;;5007602;28;20083;-70
2021/12/02 14:40:45;;;;;;;15.82;7.63;;;;;;;;;;5008846;28;20617;-69
2021/12/02 14:43:24;;;;;;;17.30;8.73;;;;;;;;;;5008812;28;20030;-69
2021/12/02 14:45:51;;;;;;;29.33;12.65;;;;;;;;;;5008814;28;20072;-69
2021/12/02 14:48:20;;;;;;;35.13;15.98;;;;;;;;;;5008846;28;20042;-69
2021/12/02 14:50:55;;;;;;;29.38;13.00;;;;;;;;;;5008253;28;20464;-69
2021/12/02 14:53:35;;;;;;;20.75;9.63;;;;;;;;;;5007178;28;20034;-69
2021/12/02 14:56:05;;;;;;;26.42;12.10;;;;;;;;;;5009891;28;20042;-69
2021/12/02 14:58:31;;;;;;;27.23;12.93;;;;;;;;;;5010533;28;20139;-69
2021/12/02 15:01:12;;;;;;;23.10;10.45;;;;;;;;;;5010446;28;20863;-69
2021/12/02 15:03:37;;;;;;;23.90;11.65;;;;;;;;;;5008694;28;20044;-70
2021/12/02 15:06:04;;;;;;;26.70;14.30;;;;;;;;;;5011463;28;20022;-69
2021/12/02 15:08:33;;;;;;;81.35;39.90;;;;;;;;;;5012668;28;20041;-69
2021/12/02 15:11:00;;;;;;;77.13;38.00;;;;;;;;;;5012681;28;20543;-69
2021/12/02 15:13:38;;;;;;;77.40;37.13;;;;;;;;;;5011066;28;20065;-69
2021/12/02 15:16:04;;;;;;;127.22;56.60;;;;;;;;;;5012378;28;20491;-69
2021/12/02 15:18:29;;;;;;;121.95;49.95;;;;;;;;;;5012540;28;20034;-70
2021/12/02 15:20:57;;;;;;;114.82;44.42;;;;;;;;;;5012309;28;20065;-69